x

Boston 16 Nm East Of Boston, Ma (44013) Wave Buoy

7:50am - Wed 29th Jul 2015 All times are EDT. -4 hours from GMT.

  • Sig Wave height 1.3ft
  • Swell Direction
  • Peak Period 10s
  • Average Period 6s
  • Wind
    4mph, 7mph gusts
  • Sea Temp 68°f
  • 空気 Temp 71°f
  • Sea Pressure 1014.5mb
  • Boston 16 Nm East Of Boston, Ma
  • Boston 16 Nm East Of Boston, Ma

More Historic Weather Station data

Upgrade to MSW Pro to gain access to the past 30 days of data for over 8000 Wavebouys and Weather Stations around the globe.

Join Pro

Comparision Forecast

View Surf forecast
   
Wed 07/29 7:50am 1.3ft 10s 6s 4 7 mph 1014.5mb 68f 71f
6:50am 1.3ft 9s 7s 7 9 mph 1014.5mb 69f 71f
5:50am 1.3ft 7s 7s 7
mph
1014.1mb 69f 70f
4:50am 1.3ft 9s 7s 4 7 mph 1014mb 69f 70f
3:50am 1.3ft 8s 7s 9
mph
1013.7mb 70f 71f
2:50am 1ft 8s 7s 7
mph
1013.8mb 70f 71f
1:50am 1.3ft 9s 7s 7
mph
1013.8mb 70f 71f
12:50am 1.3ft 10s 7s 7 9 mph 1014.2mb 70f 71f
Tue 07/28 11:50pm 1.3ft 9s 6s 7
mph
1014.3mb 70f 72f
10:50pm 1.3ft 7s 6s 7
mph
1014.5mb 70f 72f
9:50pm 1.6ft 8s 6s 7
mph
1014.4mb 69f 71f
8:50pm 1.6ft 8s 6s 2
mph
1014.5mb 71f 71f
7:50pm 1.6ft 11s 6s 2
mph
1014.3mb 71f 72f
6:50pm 1.6ft 8s 6s 7
mph
1013.9mb 71f 73f
5:50pm 1.6ft 8s 6s 7 9 mph 1014.3mb 71f 73f
3:50pm 1.6ft 10s 6s 9 11 mph 1013.8mb 73f 73f
2:50pm 1.6ft 8s 6s 9 11 mph 1013.9mb 73f 73f
1:50pm 1.6ft 8s 6s 7 9 mph 1014.3mb 73f 74f
12:50pm 1.6ft 9s 6s 2 4 mph 1014.5mb 72f 75f
11:50am 1.6ft 9s 6s 4 7 mph 1014.6mb 71f 73f
10:50am 2ft 8s 6s 7 9 mph 1014.7mb 70f 72f
9:50am 2ft 8s 6s 2 4 mph 1015.1mb 69f 71f
8:50am 2ft 8s 6s 7 9 mph 1015mb 69f 70f
7:50am 2ft 8s 6s 7 9 mph 1015.3mb 68f 69f
6:50am 2ft 8s 6s 7 9 mph 1015.3mb 68f 69f
5:50am 2ft 9s 6s 7
mph
1015.6mb 68f 69f
4:50am 2ft 8s 6s 9
mph
1015.4mb 69f 69f
3:50am 2ft 9s 6s 9
mph
1015.6mb 69f 69f
2:50am 2ft 9s 6s 7
mph
1015.9mb 68f 69f
1:50am 2ft 9s 6s 9 11 mph 1015.9mb 68f 69f
12:50am 2ft 9s 6s 9
mph
1016.1mb 68f 70f
Mon 07/27 11:50pm 2ft 9s 6s 7 9 mph 1016.4mb 68f 70f
10:50pm 2ft 10s 5s 9
mph
1016.3mb 69f 71f
9:50pm 2ft 8s 6s 9
mph
1016.6mb 69f 71f
8:50pm 2ft 8s 5s 9
mph
1015.9mb 69f 71f
7:50pm 2.5ft 8s 5s 11
mph
1015.3mb 69f 72f
6:50pm 2ft 8s 5s 13
mph
1015.3mb 69f 73f
5:50pm 2ft 9s 5s 13 16 mph 1015.1mb 69f 74f
4:50pm 2ft 8s 5s 13 16 mph 1015.6mb 69f 74f
3:50pm 1.6ft 7s 5s 9 11 mph 1015.9mb 69f 72f
2:50pm 1.6ft 11s 5s 11
mph
1016mb 69f 71f
1:50pm 1.6ft 10s 4s 4 7 mph 1016.5mb 69f 73f
12:50pm 1.6ft 11s 5s 7 9 mph 1017.3mb 67f 72f
11:50am 1.3ft 11s 5s 9 11 mph 1017.1mb 67f 70f
10:50am 1.3ft 11s 5s 9
mph
1017.1mb 67f 70f
9:50am 1.3ft 11s 5s 7
mph
1017mb 67f 69f
8:50am 1.3ft 11s 5s 4
mph
1016.6mb 66f 69f
7:50am 1.3ft 11s 5s 9 11 mph 1016.3mb 66f 68f
6:50am 1.6ft 11s 4s 11
mph
1015.8mb 66f 68f
5:50am 1.6ft 11s 4s 11 13 mph 1016.1mb 66f 69f
4:50am 1.6ft 11s 4s 11 13 mph 1016mb 66f 69f
3:50am 1.6ft 10s 4s 9 11 mph 1015.4mb 66f 69f
2:50am 1.6ft 11s 4s 4
mph
1015.8mb 67f 70f
1:50am 1.6ft 11s 4s  -  2 mph 1015.9mb 67f 69f
12:50am 1.6ft 11s 4s 7 9 mph 1015.8mb 67f 70f
Sun 07/26 11:50pm 1.6ft 4s 4s 7
mph
1016mb 67f 69f
10:50pm 2ft 4s 4s 7 9 mph 1016.2mb 67f 70f
9:50pm 2ft 4s 4s 9 11 mph 1015.8mb 67f 70f
8:50pm 2.5ft 4s 4s 11
mph
1015.1mb 67f 71f
7:50pm 2.5ft 5s 4s 11
mph
1015.4mb 67f 72f
6:50pm 2.5ft 4s 4s 11 13 mph 1015mb 67f 72f
5:50pm 3ft 4s 4s 13 16 mph 1014.8mb 67f 73f
4:50pm 2.5ft 4s 4s 16 18 mph 1015.2mb 67f 70f
3:50pm 2.5ft 4s 4s 16 18 mph 1015.5mb 68f 69f
2:50pm 2.5ft 4s 4s 16 20 mph 1015.9mb 68f 69f
1:50pm 2.5ft 4s 4s 16 18 mph 1016.3mb 68f 69f
12:50pm 2ft 4s 4s 16 18 mph 1016.5mb 68f 69f
11:50am 2ft 11s 4s 13 16 mph 1016.9mb 67f 68f
10:50am 2ft 4s 4s 13 16 mph 1017mb 67f 67f
9:50am 2ft 12s 4s 13
mph
1017.2mb 67f 67f
8:50am 2ft 11s 4s 11 16 mph 1017.3mb 67f 66f
7:50am 1.6ft 11s 4s 11 13 mph 1017mb 67f 66f
6:50am 1.6ft 11s 5s 9
mph
1016.9mb 67f 66f
5:50am 1.6ft 6s 5s 9 11 mph 1016.6mb 67f 66f
4:50am 2ft 6s 5s 7
mph
1016.7mb 67f 65f
3:50am 2ft 5s 5s 7 9 mph 1016.7mb 67f 65f
2:50am 2ft 6s 5s 4 7 mph 1017.1mb 67f 65f
1:50am 2ft 5s 5s 4
mph
1017.5mb 67f 64f
12:50am 2ft 11s 5s 4 7 mph 1017.9mb 67f 64f
Sat 07/25 11:50pm 2ft 5s 5s 2 4 mph 1017.9mb 67f 64f
10:50pm 1.6ft 11s 5s 2 4 mph 1018.1mb 67f 64f
9:50pm 1.6ft 11s 4s 2 4 mph 1018mb 66f 64f
8:50pm 1.6ft 4s 4s 4 7 mph 1017.5mb 67f 64f
7:50pm 2ft 5s 4s 4 7 mph 1017.2mb 67f 63f
6:50pm 1.6ft 5s 4s 7
mph
1017.1mb 67f 63f
5:50pm 2ft 5s 4s 9 11 mph 1017.1mb 67f 63f
4:50pm 2.5ft 5s 4s 7 9 mph 1017.7mb 67f 63f
3:50pm 2.5ft 5s 4s 9 11 mph 1017.9mb 67f 62f
2:50pm 2.5ft 5s 4s 11 13 mph 1017.8mb 67f 62f
1:50pm 2.5ft 4s 4s 13 16 mph 1017.8mb 67f 62f